Time;durP1;ratioP1;P1;durP2;ratioP2;P2;SDS_P1;SDS_P2;PMS_P1;PMS_P2;Temp;Humidity;BMP_temperature;BMP_pressure;BME280_temperature;BME280_humidity;BME280_pressure;Samples;Min_cycle;Max_cycle;Signal;HPM_P1;HPM_P2
2022/03/17 00:01:17;;;;;;;;;;;;;;;10.31;100.00;101907.56;4963195;28;19922;-75
2022/03/17 00:03:42;;;;;;;;;;;;;;;10.37;100.00;101905.63;4967093;28;19972;-75
2022/03/17 00:06:10;;;;;;;;;;;;;;;10.37;100.00;101902.09;4961784;28;19919;-75
2022/03/17 00:08:35;;;;;;;;;;;;;;;10.37;100.00;101908.28;4970621;28;19984;-75
2022/03/17 00:11:01;;;;;;;;;;;;;;;10.40;100.00;101910.00;4970315;28;20691;-76
2022/03/17 00:13:26;;;;;;;;;;;;;;;10.44;100.00;101920.50;4977685;28;19984;-75
2022/03/17 00:15:51;;;;;;;;;;;;;;;10.41;100.00;101920.59;4970107;28;19925;-76
2022/03/17 00:18:17;;;;;;;;;;;;;;;10.45;100.00;101926.66;4961750;28;19930;-76
2022/03/17 00:20:42;;;;;;;;;;;;;;;10.53;100.00;101919.38;4968839;28;19958;-75
2022/03/17 00:23:07;;;;;;;;;;;;;;;10.52;100.00;101926.50;4965372;28;19945;-75
2022/03/17 00:25:32;;;;;;;;;;;;;;;10.58;100.00;101917.50;4963539;28;20390;-75
2022/03/17 00:27:58;;;;;;;;;;;;;;;10.53;100.00;101916.72;4967532;28;19969;-75
2022/03/17 00:30:24;;;;;;;;;;;;;;;10.59;100.00;101912.13;4959375;28;19918;-75
2022/03/17 00:32:49;;;;;;;;;;;;;;;10.60;100.00;101926.31;4956031;28;19950;-76
2022/03/17 00:37:59;;;;;;;;;;;;;;;10.75;100.00;101931.19;4957369;29;20403;-75
2022/03/17 00:40:24;;;;;;;;;;;;;;;10.69;100.00;101929.59;4974886;28;19918;-75
2022/03/17 00:42:49;;;;;;;;;;;;;;;10.73;100.00;101928.59;4969422;28;19918;-75
2022/03/17 00:45:14;;;;;;;;;;;;;;;10.72;100.00;101926.84;4966065;28;19962;-75
2022/03/17 00:47:40;;;;;;;;;;;;;;;10.70;100.00;101930.44;4970718;28;19925;-75
2022/03/17 00:50:06;;;;;;;;;;;;;;;10.83;100.00;101937.19;4972503;28;19927;-75
2022/03/17 00:52:31;;;;;;;;;;;;;;;10.77;100.00;101932.94;4961089;28;19922;-75
2022/03/17 00:54:57;;;;;;;;;;;;;;;10.77;100.00;101935.59;4965117;28;20008;-75
2022/03/17 00:57:23;;;;;;;;;;;;;;;10.84;100.00;101944.28;4970122;28;19934;-75
2022/03/17 00:59:49;;;;;;;;;;;;;;;10.76;100.00;101951.56;4968641;28;19918;-75
2022/03/17 01:02:14;;;;;;;;;;;;;;;10.69;100.00;101944.66;4964851;28;19918;-75
2022/03/17 01:04:39;;;;;;;;;;;;;;;10.65;100.00;101957.13;4967278;28;19925;-75
2022/03/17 01:07:04;;;;;;;;;;;;;;;10.54;100.00;101958.34;4961194;28;20028;-75
2022/03/17 01:09:30;;;;;;;;;;;;;;;10.43;100.00;101960.38;4964282;28;20009;-75
2022/03/17 01:11:55;;;;;;;;;;;;;;;10.31;100.00;101958.88;4975222;28;19934;-75
2022/03/17 01:14:21;;;;;;;;;;;;;;;10.27;100.00;101943.06;4975153;28;19918;-75
2022/03/17 01:16:46;;;;;;;;;;;;;;;10.23;100.00;101930.75;4976686;28;19947;-75
2022/03/17 01:19:11;;;;;;;;;;;;;;;10.19;100.00;101894.59;4975796;28;19918;-75
2022/03/17 01:21:36;;;;;;;;;;;;;;;10.14;100.00;101872.59;4976158;28;19952;-75
2022/03/17 01:24:02;;;;;;;;;;;;;;;10.16;100.00;101813.25;4976866;28;20378;-76
2022/03/17 01:26:27;;;;;;;;;;;;;;;10.05;100.00;101809.97;4963028;28;19973;-76
2022/03/17 01:28:52;;;;;;;;;;;;;;;10.11;100.00;101819.56;4960806;29;20327;-76
2022/03/17 01:31:18;;;;;;;;;;;;;;;10.16;100.00;101815.91;4965692;28;19929;-76
2022/03/17 01:33:43;;;;;;;;;;;;;;;10.26;100.00;101808.56;4964560;28;19918;-76
2022/03/17 01:36:08;;;;;;;;;;;;;;;10.21;100.00;101806.00;4961934;29;19918;-76
2022/03/17 01:38:34;;;;;;;;;;;;;;;10.26;100.00;101812.09;4962211;29;20314;-76
2022/03/17 01:40:59;;;;;;;;;;;;;;;10.23;100.00;101801.56;4959811;28;19926;-75
2022/03/17 01:43:24;;;;;;;;;;;;;;;10.29;100.00;101808.50;4956887;29;19919;-75
2022/03/17 01:45:51;;;;;;;;;;;;;;;10.38;100.00;101800.28;4957146;28;19919;-75
2022/03/17 01:48:21;;;;;;;;;;;;;;;10.35;100.00;101797.72;4963185;28;19918;-76
2022/03/17 02:07:27;;;;;;;;;;;;;;;9.56;100.00;101808.50;5049066;23;19996;-71
2022/03/17 02:09:53;;;;;;;;;;;;;;;9.44;100.00;101799.06;4994094;28;19987;-71
2022/03/17 02:15:06;;;;;;;;;;;;;;;9.22;100.00;101830.47;4995892;28;20025;-71
2022/03/17 02:17:32;;;;;;;;;;;;;;;9.08;100.00;101836.97;4996331;28;19918;-71
2022/03/17 02:19:58;;;;;;;;;;;;;;;9.03;100.00;101841.47;4997837;28;19965;-71
2022/03/17 02:22:24;;;;;;;;;;;;;;;8.76;100.00;101861.44;4996155;28;19922;-71
2022/03/17 02:27:38;;;;;;;;;;;;;;;8.42;100.00;101872.69;4997766;28;19929;-71
2022/03/17 02:30:05;;;;;;;;;;;;;;;8.29;100.00;101895.00;4996083;28;19918;-71
2022/03/17 02:32:30;;;;;;;;;;;;;;;8.28;100.00;101906.44;4996040;28;19949;-71
2022/03/17 02:34:55;;;;;;;;;;;;;;;8.26;100.00;101911.78;4997384;28;19945;-71
2022/03/17 02:37:21;;;;;;;;;;;;;;;8.19;100.00;101909.22;4997682;28;19918;-71
2022/03/17 02:39:46;;;;;;;;;;;;;;;8.09;100.00;101916.44;4996025;28;19918;-71
2022/03/17 02:42:11;;;;;;;;;;;;;;;8.06;100.00;101926.19;4997129;28;19925;-70
2022/03/17 02:44:38;;;;;;;;;;;;;;;7.99;100.00;101941.25;4997381;28;19941;-71
2022/03/17 02:47:04;;;;;;;;;;;;;;;7.99;100.00;101938.63;4996005;28;20387;-71
2022/03/17 02:49:29;;;;;;;;;;;;;;;7.99;100.00;101946.56;4995771;28;19985;-71
2022/03/17 02:51:55;;;;;;;;;;;;;;;8.02;100.00;101959.72;4981110;28;20005;-72
2022/03/17 02:54:20;;;;;;;;;;;;;;;7.99;100.00;101967.72;4976262;28;19922;-72
2022/03/17 02:56:45;;;;;;;;;;;;;;;8.04;100.00;101981.75;4976290;28;20384;-71
2022/03/17 02:59:11;;;;;;;;;;;;;;;7.91;100.00;101980.19;4976113;28;19918;-72
2022/03/17 03:01:36;;;;;;;;;;;;;;;7.96;100.00;102002.16;4975669;28;19973;-72
2022/03/17 03:04:02;;;;;;;;;;;;;;;7.95;100.00;102015.41;4977240;28;19925;-72
2022/03/17 03:06:27;;;;;;;;;;;;;;;7.87;100.00;102033.13;4975928;28;19922;-72
2022/03/17 03:08:52;;;;;;;;;;;;;;;7.84;100.00;102042.00;4976025;28;20032;-72
2022/03/17 03:11:17;;;;;;;;;;;;;;;7.86;100.00;102058.72;4975955;28;20004;-72
2022/03/17 03:13:43;;;;;;;;;;;;;;;7.80;100.00;102072.00;4977181;28;19969;-72
2022/03/17 03:16:09;;;;;;;;;;;;;;;7.75;100.00;102095.88;4977494;28;19925;-72
2022/03/17 03:18:34;;;;;;;;;;;;;;;7.81;100.00;102140.75;4977311;28;19918;-72
2022/03/17 03:20:59;;;;;;;;;;;;;;;7.78;100.00;102140.78;4977053;28;19925;-72
2022/03/17 03:23:24;;;;;;;;;;;;;;;7.70;100.00;102155.88;4975706;28;19947;-72
2022/03/17 03:25:50;;;;;;;;;;;;;;;7.75;100.00;102169.06;4976792;28;19919;-72
2022/03/17 03:28:15;;;;;;;;;;;;;;;7.69;100.00;102164.69;4976411;28;19924;-72
2022/03/17 03:30:40;;;;;;;;;;;;;;;7.70;100.00;102189.38;4975558;28;19918;-72
2022/03/17 03:33:07;;;;;;;;;;;;;;;7.60;100.00;102187.69;4975617;28;19926;-72
2022/03/17 03:38:17;;;;;;;;;;;;;;;7.58;100.00;102205.31;4977069;28;20445;-72
2022/03/17 03:40:42;;;;;;;;;;;;;;;7.60;100.00;102208.84;4975117;28;19946;-72
2022/03/17 03:43:07;;;;;;;;;;;;;;;7.54;100.00;102207.16;4976555;28;19918;-72
2022/03/17 03:45:33;;;;;;;;;;;;;;;7.61;100.00;102207.97;4975452;28;19922;-73
2022/03/17 03:47:58;;;;;;;;;;;;;;;7.56;100.00;102212.41;4976521;28;19965;-72
2022/03/17 03:50:25;;;;;;;;;;;;;;;7.63;100.00;102214.09;4975104;28;20410;-72
2022/03/17 03:56:11;;;;;;;;;;;;;;;7.59;100.00;102222.97;4957237;29;20004;-72
2022/03/17 04:04:42;;;;;;;;;;;;;;;7.54;100.00;102219.47;4956972;29;19928;-72
2022/03/17 04:07:09;;;;;;;;;;;;;;;7.52;100.00;102216.84;4971860;28;20005;-72
2022/03/17 04:09:35;;;;;;;;;;;;;;;7.53;100.00;102215.94;4957076;28;20017;-72
2022/03/17 04:12:01;;;;;;;;;;;;;;;7.53;100.00;102218.59;4971634;28;19925;-72
2022/03/17 04:14:27;;;;;;;;;;;;;;;7.58;100.00;102232.66;4956766;28;19918;-72
2022/03/17 04:16:52;;;;;;;;;;;;;;;7.63;100.00;102232.63;4956622;28;20368;-72
2022/03/17 04:19:17;;;;;;;;;;;;;;;7.53;100.00;102229.16;4971465;28;19919;-72
2022/03/17 04:21:44;;;;;;;;;;;;;;;7.53;100.00;102244.19;4955387;29;19922;-72
2022/03/17 04:24:09;;;;;;;;;;;;;;;7.51;100.00;102240.66;4971316;28;20379;-72
2022/03/17 04:26:34;;;;;;;;;;;;;;;7.53;100.00;102254.75;4971442;28;20018;-72
2022/03/17 04:29:00;;;;;;;;;;;;;;;7.50;100.00;102262.72;4956455;28;19969;-72
2022/03/17 04:31:25;;;;;;;;;;;;;;;7.52;100.00;102260.91;4971282;28;19970;-72
2022/03/17 04:33:50;;;;;;;;;;;;;;;7.56;100.00;102265.28;4971324;28;19918;-72
2022/03/17 04:36:16;;;;;;;;;;;;;;;7.45;100.00;102267.16;4955114;29;19925;-72
2022/03/17 04:38:42;;;;;;;;;;;;;;;7.58;100.00;102284.66;4955393;28;19918;-72
2022/03/17 04:41:09;;;;;;;;;;;;;;;7.49;100.00;102288.25;4956508;28;19919;-72
2022/03/17 04:43:35;;;;;;;;;;;;;;;7.49;100.00;102300.59;4960701;28;19925;-72
2022/03/17 04:46:00;;;;;;;;;;;;;;;7.41;100.00;102305.03;4974268;28;19918;-72
2022/03/17 04:48:25;;;;;;;;;;;;;;;7.41;100.00;102320.91;4975439;28;19946;-72
2022/03/17 04:50:51;;;;;;;;;;;;;;;7.36;100.00;102320.03;4974025;28;20283;-72
2022/03/17 04:53:29;;;;;;;;;;;;;;;7.34;100.00;102332.41;4975347;28;19918;-72
2022/03/17 04:55:55;;;;;;;;;;;;;;;7.41;100.00;102347.31;4974201;28;19918;-72
2022/03/17 04:58:21;;;;;;;;;;;;;;;7.34;100.00;102348.28;4974061;28;19917;-72
2022/03/17 05:00:46;;;;;;;;;;;;;;;7.38;100.00;102350.00;4967776;28;20013;-72
2022/03/17 05:03:11;;;;;;;;;;;;;;;7.35;100.00;102372.03;4973677;28;20279;-72
2022/03/17 05:05:37;;;;;;;;;;;;;;;7.36;100.00;102387.00;4975025;28;20375;-72
2022/03/17 05:08:02;;;;;;;;;;;;;;;7.39;100.00;102387.00;4975322;28;20371;-73
2022/03/17 05:10:30;;;;;;;;;;;;;;;7.39;100.00;102388.78;4973832;28;19922;-72
2022/03/17 05:12:56;;;;;;;;;;;;;;;7.41;100.00;102408.13;4974775;28;19922;-72
2022/03/17 05:15:22;;;;;;;;;;;;;;;7.45;100.00;102416.03;4975802;28;19918;-73
2022/03/17 05:17:47;;;;;;;;;;;;;;;7.45;100.00;102431.03;4975150;28;20371;-73
2022/03/17 05:20:12;;;;;;;;;;;;;;;7.42;100.00;102437.19;4975116;28;19918;-72
2022/03/17 05:22:39;;;;;;;;;;;;;;;7.36;100.00;102452.19;4975110;28;19922;-73
2022/03/17 05:25:05;;;;;;;;;;;;;;;7.33;100.00;102450.44;4973633;28;19940;-72
2022/03/17 05:27:30;;;;;;;;;;;;;;;7.35;100.00;102450.44;4973557;28;20324;-72
2022/03/17 05:29:55;;;;;;;;;;;;;;;7.32;100.00;102455.75;4974996;28;19949;-73
2022/03/17 05:32:21;;;;;;;;;;;;;;;7.35;100.00;102461.00;4973752;28;20375;-73
2022/03/17 05:34:46;;;;;;;;;;;;;;;7.33;100.00;102474.25;4974887;28;19925;-73
2022/03/17 05:37:11;;;;;;;;;;;;;;;7.30;100.00;102481.28;4974765;28;19918;-73
2022/03/17 05:39:36;;;;;;;;;;;;;;;7.30;100.00;102495.41;4974916;28;19918;-73
2022/03/17 05:42:02;;;;;;;;;;;;;;;7.24;100.00;102491.88;4974710;28;19972;-73
2022/03/17 05:44:27;;;;;;;;;;;;;;;7.27;100.00;102503.34;4974660;28;19924;-72
2022/03/17 05:46:52;;;;;;;;;;;;;;;7.24;100.00;102505.09;4973280;28;20394;-73
2022/03/17 05:49:19;;;;;;;;;;;;;;;7.23;100.00;102511.28;4973682;28;19918;-73
2022/03/17 05:51:44;;;;;;;;;;;;;;;7.29;100.00;102513.91;4977500;28;19918;-73
2022/03/17 05:54:10;;;;;;;;;;;;;;;7.35;100.00;102521.81;4978486;28;20286;-73
2022/03/17 05:56:35;;;;;;;;;;;;;;;7.38;100.00;102530.63;4978315;28;19941;-73
2022/03/17 05:59:00;;;;;;;;;;;;;;;7.32;100.00;102542.97;4977382;28;20306;-75
2022/03/17 06:01:26;;;;;;;;;;;;;;;7.30;100.00;102539.44;4977224;28;19996;-74
2022/03/17 06:03:51;;;;;;;;;;;;;;;7.37;100.00;102547.38;4978458;28;19918;-73
2022/03/17 06:06:16;;;;;;;;;;;;;;;7.32;100.00;102551.78;4978593;28;19922;-74
2022/03/17 06:08:45;;;;;;;;;;;;;;;7.32;100.00;102554.44;4979317;28;19976;-72
2022/03/17 06:11:10;;;;;;;;;;;;;;;7.36;100.00;102561.44;4978828;28;20033;-73
2022/03/17 06:13:56;;;;;;;;;;;;;;;7.36;100.00;102569.38;4977965;28;20395;-76
2022/03/17 06:16:22;;;;;;;;;;;;;;;7.37;100.00;102575.56;4977949;28;19922;-74
2022/03/17 06:18:48;;;;;;;;;;;;;;;7.34;100.00;102587.00;4976643;28;20386;-74
2022/03/17 06:21:13;;;;;;;;;;;;;;;7.34;100.00;102583.50;4977712;28;20001;-72
2022/03/17 06:23:38;;;;;;;;;;;;;;;7.43;100.00;102586.09;4978175;28;19941;-73
2022/03/17 06:26:03;;;;;;;;;;;;;;;7.39;100.00;102594.94;4977576;28;19918;-74
2022/03/17 06:28:29;;;;;;;;;;;;;;;7.48;100.00;102600.19;4977708;28;19922;-73
2022/03/17 06:30:54;;;;;;;;;;;;;;;7.52;100.00;102615.16;4976352;28;19918;-73
2022/03/17 06:33:20;;;;;;;;;;;;;;;7.55;100.00;102610.75;4976021;28;20077;-73
2022/03/17 06:35:45;;;;;;;;;;;;;;;7.56;100.00;102627.50;4969911;28;19919;-73
2022/03/17 06:38:10;;;;;;;;;;;;;;;7.48;100.00;102624.00;4956955;28;20348;-73
2022/03/17 06:40:35;;;;;;;;;;;;;;;7.64;100.00;102633.66;4956976;29;20053;-73
2022/03/17 06:43:04;;;;;;;;;;;;;;;7.56;100.00;102646.00;4958052;28;20021;-73
2022/03/17 06:45:29;;;;;;;;;;;;;;;7.52;100.00;102654.81;4957969;28;19918;-73
2022/03/17 06:47:55;;;;;;;;;;;;;;;7.56;100.00;102656.59;4956775;28;19918;-73
2022/03/17 06:50:21;;;;;;;;;;;;;;;7.48;100.00;102655.72;4956624;28;19918;-73
2022/03/17 06:52:46;;;;;;;;;;;;;;;7.50;100.00;102664.53;4966541;28;20293;-73
2022/03/17 06:55:11;;;;;;;;;;;;;;;7.45;100.00;102676.88;4976236;28;19965;-73
2022/03/17 06:57:37;;;;;;;;;;;;;;;7.42;100.00;102687.44;4976728;28;19925;-73
2022/03/17 07:00:06;;;;;;;;;;;;;;;7.53;100.00;102693.63;4977205;28;19929;-74
2022/03/17 07:02:32;;;;;;;;;;;;;;;7.46;100.00;102700.66;4976093;28;19919;-75
2022/03/17 07:04:57;;;;;;;;;;;;;;;7.53;100.00;102702.41;4976337;28;20372;-73
2022/03/17 07:07:23;;;;;;;;;;;;;;;7.68;100.00;102693.59;4975697;28;19922;-75
2022/03/17 07:09:49;;;;;;;;;;;;;;;7.75;100.00;102700.63;4976733;28;19918;-75
2022/03/17 07:12:14;;;;;;;;;;;;;;;7.65;100.00;102704.16;4975994;28;19940;-73
2022/03/17 07:14:39;;;;;;;;;;;;;;;7.78;100.00;102712.06;4975951;28;19949;-74
2022/03/17 07:17:05;;;;;;;;;;;;;;;7.61;100.00;102723.56;4975744;28;19918;-74
2022/03/17 07:19:30;;;;;;;;;;;;;;;7.64;100.00;102735.00;4972268;28;20367;-74
2022/03/17 07:21:55;;;;;;;;;;;;;;;7.69;100.00;102741.19;4972370;28;19918;-74
2022/03/17 07:24:21;;;;;;;;;;;;;;;7.64;100.00;102739.44;4975300;28;19968;-74
2022/03/17 07:26:46;;;;;;;;;;;;;;;7.58;100.00;102756.16;4975876;28;20081;-74
2022/03/17 07:29:11;;;;;;;;;;;;;;;7.64;100.00;102753.53;4964824;28;19919;-74
2022/03/17 07:31:36;;;;;;;;;;;;;;;7.73;100.00;102760.59;4957351;29;19919;-74
2022/03/17 07:34:01;;;;;;;;;;;;;;;7.79;100.00;102761.47;4973789;28;19960;-74
2022/03/17 07:36:27;;;;;;;;;;;;;;;7.79;100.00;102757.94;4976740;28;19956;-74
2022/03/17 07:38:56;;;;;;;;;;;;;;;7.83;100.00;102775.56;4975216;28;20287;-74
2022/03/17 07:41:22;;;;;;;;;;;;;;;7.87;100.00;102776.44;4966793;28;19918;-74
2022/03/17 07:43:47;;;;;;;;;;;;;;;7.75;100.00;102782.63;4979913;28;20394;-74
2022/03/17 07:46:12;;;;;;;;;;;;;;;7.75;100.00;102785.28;4966128;28;20005;-74
2022/03/17 07:48:37;;;;;;;;;;;;;;;7.79;100.00;102777.34;4970468;28;19997;-74
2022/03/17 07:51:03;;;;;;;;;;;;;;;7.69;100.00;102793.19;4968367;28;20487;-74
2022/03/17 07:53:28;;;;;;;;;;;;;;;7.77;100.00;102797.59;4957189;29;19918;-75
2022/03/17 07:55:54;;;;;;;;;;;;;;;7.72;100.00;102803.78;4957061;28;20012;-75
2022/03/17 07:58:48;;;;;;;;;;;;;;;7.58;100.00;102814.34;4972997;28;19928;-74
2022/03/17 08:01:14;;;;;;;;;;;;;;;7.70;100.00;102824.94;4975143;28;19927;-74
2022/03/17 08:03:40;;;;;;;;;;;;;;;7.72;100.00;102838.19;4976013;28;19922;-73
2022/03/17 08:06:06;;;;;;;;;;;;;;;7.73;100.00;102838.19;4974611;28;20013;-73
2022/03/17 08:08:32;;;;;;;;;;;;;;;7.70;100.00;102839.94;4974856;28;20403;-73
2022/03/17 08:10:57;;;;;;;;;;;;;;;7.68;100.00;102844.31;4969543;28;20017;-73
2022/03/17 08:13:25;;;;;;;;;;;;;;;7.72;100.00;102851.41;4968980;28;20008;-73
2022/03/17 08:15:50;;;;;;;;;;;;;;;7.80;100.00;102857.53;4971945;28;20368;-74
2022/03/17 08:18:15;;;;;;;;;;;;;;;7.89;100.00;102860.22;4973818;28;19964;-74
2022/03/17 08:20:41;;;;;;;;;;;;;;;8.05;100.00;102867.28;4969922;28;19918;-74
2022/03/17 08:23:07;;;;;;;;;;;;;;;8.22;100.00;102872.56;4970747;28;19926;-73
2022/03/17 08:25:32;;;;;;;;;;;;;;;8.22;100.00;102886.69;4971794;28;19922;-73
2022/03/17 08:28:01;;;;;;;;;;;;;;;8.38;100.00;102896.41;4971811;28;19918;-73
2022/03/17 08:30:27;;;;;;;;;;;;;;;8.65;100.00;102892.84;4970875;28;20121;-73
2022/03/17 08:32:52;;;;;;;;;;;;;;;8.65;100.00;102899.00;4974001;28;19918;-73
2022/03/17 08:35:17;;;;;;;;;;;;;;;8.78;100.00;102905.16;4957875;28;20306;-73
2022/03/17 08:37:44;;;;;;;;;;;;;;;8.68;100.00;102906.06;4973995;28;19941;-74
2022/03/17 08:40:10;;;;;;;;;;;;;;;8.62;100.00;102908.75;4975240;28;19945;-73
2022/03/17 08:42:36;;;;;;;;;;;;;;;8.76;100.00;102913.09;4967939;28;19922;-74
2022/03/17 08:49:18;;;;;;;;;;;;;;;8.98;100.00;102924.53;4975017;28;19922;-74
2022/03/17 08:50:31;;;;;;;;;;;;;;;9.36;100.00;102941.16;4963392;28;19940;-74
2022/03/17 08:52:56;;;;;;;;;;;;;;;9.42;100.00;102945.56;4960557;28;20356;-74
2022/03/17 08:55:21;;;;;;;;;;;;;;;9.58;100.00;102952.56;4964902;28;19918;-74
2022/03/17 08:57:49;;;;;;;;;;;;;;;9.45;100.00;102951.75;4965936;28;19969;-74
2022/03/17 09:00:14;;;;;;;;;;;;;;;9.71;100.00;102964.88;4950421;28;20353;-74
2022/03/17 09:02:40;;;;;;;;;;;;;;;9.74;100.00;102959.56;4972083;28;19926;-75
2022/03/17 09:05:05;;;;;;;;;;;;;;;9.91;100.00;102960.34;4964988;28;19922;-74
2022/03/17 09:07:31;;;;;;;;;;;;;;;9.92;100.00;102970.06;4958610;28;20339;-74
2022/03/17 09:09:56;;;;;;;;;;;;;;;10.04;100.00;102978.81;4959040;28;19937;-74
2022/03/17 09:12:21;;;;;;;;;;;;;;;10.27;100.00;102978.72;4966670;28;19969;-74
2022/03/17 09:14:47;;;;;;;;;;;;;;;10.42;100.00;102974.16;4973546;28;20265;-74
2022/03/17 09:17:12;;;;;;;;;;;;;;;10.29;100.00;102979.59;4973542;28;20004;-75
2022/03/17 09:19:38;;;;;;;;;;;;;;;10.14;100.00;102985.88;4965960;28;20005;-74
2022/03/17 09:22:03;;;;;;;;;;;;;;;10.17;100.00;102983.19;4955253;28;19946;-74
2022/03/17 09:24:30;;;;;;;;;;;;;;;10.15;100.00;102984.09;4954218;28;19930;-74
2022/03/17 09:26:56;;;;;;;;;;;;;;;9.90;100.00;102998.38;4953865;28;19919;-74
2022/03/17 09:29:21;;;;;;;;;;;;;;;9.82;100.00;102997.53;4958495;28;19922;-74
2022/03/17 09:31:46;;;;;;;;;;;;;;;10.42;100.00;103010.44;4953821;28;20414;-74
2022/03/17 09:34:12;;;;;;;;;;;;;;;10.96;100.00;103014.41;4966225;28;19975;-75
2022/03/17 09:36:39;;;;;;;;;;;;;;;10.76;100.00;103010.16;4974493;28;19918;-74
2022/03/17 09:41:48;;;;;;;;;;;;;;;11.25;100.00;103028.31;4973715;28;20060;-74
2022/03/17 09:44:14;;;;;;;;;;;;;;;11.12;100.00;103030.22;4972882;28;19918;-74
2022/03/17 09:46:41;;;;;;;;;;;;;;;10.88;100.00;103033.09;4974363;28;19923;-74
2022/03/17 09:49:07;;;;;;;;;;;;;;;11.09;100.00;103037.34;4972874;28;20021;-74
2022/03/17 09:51:34;;;;;;;;;;;;;;;11.25;100.00;103036.28;4974083;28;20009;-74
2022/03/17 09:54:00;;;;;;;;;;;;;;;11.64;100.00;103041.19;4972581;28;19918;-74
2022/03/17 09:56:26;;;;;;;;;;;;;;;12.11;100.00;103047.66;4946322;28;19923;-74
2022/03/17 09:58:51;;;;;;;;;;;;;;;12.33;100.00;103049.09;4963665;28;19923;-75
2022/03/17 10:01:18;;;;;;;;;;;;;;;12.26;100.00;103058.06;4966960;28;20302;-74
2022/03/17 10:03:43;;;;;;;;;;;;;;;12.11;100.00;103068.97;4973140;28;20017;-74
2022/03/17 10:06:10;;;;;;;;;;;;;;;12.08;100.00;103069.00;4972431;28;19966;-74
2022/03/17 10:08:38;;;;;;;;;;;;;;;12.10;100.00;103061.00;4973078;28;20286;-74
2022/03/17 10:11:03;;;;;;;;;;;;;;;11.41;100.00;103068.00;4972337;28;19918;-73
2022/03/17 10:13:28;;;;;;;;;;;;;;;11.34;100.00;103074.31;4967091;28;19922;-73
2022/03/17 10:16:13;;;;;;;;;;;;;;;11.25;100.00;103078.84;4963141;28;19927;-73
2022/03/17 10:18:39;;;;;;;;;;;;;;;11.95;100.00;103078.06;4961168;28;19918;-73
2022/03/17 10:21:07;;;;;;;;;;;;;;;12.26;100.00;103092.72;4953357;29;20425;-74
2022/03/17 10:23:33;;;;;;;;;;;;;;;11.85;100.00;103095.03;4954625;29;19933;-74
2022/03/17 10:25:59;;;;;;;;;;;;;;;11.44;100.00;103099.91;4954861;28;19950;-74
2022/03/17 10:28:26;;;;;;;;;;;;;;;12.12;100.00;103094.69;4954889;28;20292;-74
2022/03/17 10:31:05;;;;;;;;;;;;;;;12.24;100.00;103105.16;4953665;28;20364;-75
2022/03/17 10:33:30;;;;;;;;;;;;;;;12.96;100.00;103123.63;4953352;28;19977;-75
2022/03/17 10:36:11;;;;;;;;;;;;;;;12.93;100.00;103119.25;4954381;28;19922;-74
2022/03/17 10:38:42;;;;;;;;;;;;;;;12.82;100.00;103129.19;4957039;28;19919;-73
2022/03/17 10:41:11;;;;;;;;;;;;;;;13.19;100.00;103126.84;4957330;28;19968;-73
2022/03/17 10:43:38;;;;;;;;;;;;;;;13.57;100.00;103135.03;4943936;28;19923;-74
2022/03/17 10:46:06;;;;;;;;;;;;;;;14.00;100.00;103143.97;4956446;28;19922;-73
2022/03/17 10:48:31;;;;;;;;;;;;;;;13.59;100.00;103142.13;4965413;28;19961;-74
2022/03/17 10:50:57;;;;;;;;;;;;;;;14.50;100.00;103141.13;4975735;28;20036;-73
2022/03/17 10:53:29;;;;;;;;;;;;;;;14.76;100.00;103140.53;4959437;28;19929;-73
2022/03/17 10:56:08;;;;;;;;;;;;;;;14.92;100.00;103148.16;4976999;28;19922;-73
2022/03/17 10:58:40;;;;;;;;;;;;;;;14.62;100.00;103150.69;4963591;28;19922;-74
2022/03/17 11:01:05;;;;;;;;;;;;;;;16.09;100.00;103148.63;4987390;28;19921;-72
2022/03/17 11:03:31;;;;;;;;;;;;;;;16.31;100.00;103152.44;4975056;28;20438;-73
2022/03/17 11:05:57;;;;;;;;;;;;;;;16.22;100.00;103153.59;4964939;28;19938;-75
2022/03/17 11:08:22;;;;;;;;;;;;;;;16.71;100.00;103158.38;4957319;28;19926;-73
2022/03/17 11:10:48;;;;;;;;;;;;;;;16.76;100.00;103169.84;4956166;29;19926;-74
2022/03/17 11:13:13;;;;;;;;;;;;;;;16.62;100.00;103167.56;4960199;28;20040;-74
2022/03/17 11:15:41;;;;;;;;;;;;;;;18.09;100.00;103167.00;4975533;28;19918;-74
2022/03/17 11:18:17;;;;;;;;;;;;;;;18.43;100.00;103169.34;4971762;28;19922;-74
2022/03/17 11:20:42;;;;;;;;;;;;;;;17.90;100.00;103176.66;4963066;28;21027;-74
2022/03/17 11:23:15;;;;;;;;;;;;;;;18.80;100.00;103177.72;4963382;28;20013;-73
2022/03/17 11:25:44;;;;;;;;;;;;;;;17.36;100.00;103178.59;4975683;28;19964;-74
2022/03/17 11:28:10;;;;;;;;;;;;;;;18.49;100.00;103179.84;4975304;28;19918;-74
2022/03/17 11:30:43;;;;;;;;;;;;;;;20.54;100.00;103184.47;4969314;28;20484;-74
2022/03/17 11:33:27;;;;;;;;;;;;;;;20.80;100.00;103184.13;4968551;28;20296;-73
2022/03/17 11:35:59;;;;;;;;;;;;;;;20.33;100.00;103188.19;4966363;28;19918;-73
2022/03/17 11:38:26;;;;;;;;;;;;;;;20.71;100.00;103195.34;4962414;28;20008;-73
2022/03/17 11:41:14;;;;;;;;;;;;;;;20.97;100.00;103195.84;4971222;28;19929;-74
2022/03/17 11:43:40;;;;;;;;;;;;;;;21.72;100.00;103207.38;4970673;28;19926;-74
2022/03/17 11:46:21;;;;;;;;;;;;;;;20.95;100.00;103207.66;4969273;28;19919;-74
2022/03/17 11:48:50;;;;;;;;;;;;;;;21.39;100.00;103210.91;4981454;28;20296;-74
2022/03/17 11:51:15;;;;;;;;;;;;;;;21.32;100.00;103220.28;4973546;28;19922;-73
2022/03/17 11:53:47;;;;;;;;;;;;;;;22.09;100.00;103225.28;4968348;28;19918;-75
2022/03/17 11:56:27;;;;;;;;;;;;;;;21.99;100.00;103237.53;4970066;28;20013;-75
2022/03/17 11:58:52;;;;;;;;;;;;;;;21.34;100.00;103230.06;4956441;28;20350;-74
2022/03/17 12:01:30;;;;;;;;;;;;;;;21.43;100.00;103223.34;4982863;28;20028;-73
2022/03/17 12:03:57;;;;;;;;;;;;;;;22.22;100.00;103235.38;4973724;28;19945;-73
2022/03/17 12:06:24;;;;;;;;;;;;;;;22.00;100.00;103237.47;4971007;28;19926;-73
2022/03/17 12:08:51;;;;;;;;;;;;;;;21.31;100.00;103242.84;4971225;28;19918;-73
2022/03/17 12:11:17;;;;;;;;;;;;;;;21.90;100.00;103247.03;4971131;28;19925;-73
2022/03/17 12:14:03;;;;;;;;;;;;;;;22.66;100.00;103247.41;4956261;28;19981;-73
2022/03/17 12:16:41;;;;;;;;;;;;;;;22.94;100.00;103254.88;4970908;28;19922;-73
2022/03/17 12:19:06;;;;;;;;;;;;;;;23.10;100.00;103250.31;4956079;29;19922;-74
2022/03/17 12:21:51;;;;;;;;;;;;;;;22.46;100.00;103265.66;4956105;29;19934;-73
2022/03/17 12:24:40;;;;;;;;;;;;;;;23.88;100.00;103272.81;4941204;29;19925;-73
2022/03/17 12:27:06;;;;;;;;;;;;;;;23.83;100.00;103264.09;4942704;29;19919;-73
2022/03/17 12:29:32;;;;;;;;;;;;;;;21.63;100.00;103267.34;4970811;28;19926;-73
2022/03/17 12:32:04;;;;;;;;;;;;;;;21.30;100.00;103257.31;4970811;28;19918;-73
2022/03/17 12:34:30;;;;;;;;;;;;;;;22.13;100.00;103283.72;4970677;28;19926;-74
2022/03/17 12:36:58;;;;;;;;;;;;;;;22.59;100.00;103277.63;4970794;28;19918;-73
2022/03/17 12:39:28;;;;;;;;;;;;;;;23.00;100.00;103280.75;4970526;28;20363;-74
2022/03/17 12:41:53;;;;;;;;;;;;;;;22.60;100.00;103272.13;4970469;28;20352;-73
2022/03/17 12:44:22;;;;;;;;;;;;;;;23.17;100.00;103276.13;4954407;29;20013;-73
2022/03/17 12:46:47;;;;;;;;;;;;;;;22.32;100.00;103281.78;4954463;29;19926;-73
2022/03/17 12:49:13;;;;;;;;;;;;;;;22.01;100.00;103277.13;4970231;28;19922;-73
2022/03/17 12:51:38;;;;;;;;;;;;;;;23.42;100.00;103275.63;4955485;28;19973;-74
2022/03/17 12:54:03;;;;;;;;;;;;;;;23.81;100.00;103285.00;4955486;29;19918;-74
2022/03/17 12:56:28;;;;;;;;;;;;;;;23.42;100.00;103281.91;4955575;29;19918;-73
2022/03/17 12:58:53;;;;;;;;;;;;;;;24.40;100.00;103280.53;4937915;29;20372;-73
2022/03/17 13:01:20;;;;;;;;;;;;;;;24.52;100.00;103286.06;4966135;28;19932;-74
2022/03/17 13:03:48;;;;;;;;;;;;;;;24.55;100.00;103290.44;4993949;28;19918;-73
2022/03/17 13:09:00;;;;;;;;;;;;;;;24.44;96.56;103288.38;4974106;28;19930;-74
2022/03/17 13:14:21;;;;;;;;;;;;;;;25.61;95.88;103290.72;4973138;28;19929;-73
2022/03/17 13:16:57;;;;;;;;;;;;;;;25.75;90.20;103292.53;4954011;28;20021;-74
2022/03/17 13:19:22;;;;;;;;;;;;;;;24.97;89.11;103283.19;4954202;28;20378;-74